Time;durP1;ratioP1;P1;durP2;ratioP2;P2;SDS_P1;SDS_P2;PMS_P1;PMS_P2;Temp;Humidity;BMP_temperature;BMP_pressure;BME280_temperature;BME280_humidity;BME280_pressure;Samples;Min_cycle;Max_cycle;Signal;HPM_P1;HPM_P2
2021/08/08 00:00:22;;;;;;;4.35;1.10;;;18.20;91.50;;;;;;5021620;28;20398;-59
2021/08/08 00:02:48;;;;;;;1.58;1.13;;;18.20;91.50;;;;;;5021511;28;20528;-59
2021/08/08 00:05:14;;;;;;;2.85;1.30;;;18.30;91.60;;;;;;5003247;28;20037;-59
2021/08/08 00:07:40;;;;;;;1.88;1.00;;;18.30;91.50;;;;;;5024107;28;20025;-59
2021/08/08 00:10:06;;;;;;;1.17;0.85;;;18.20;91.50;;;;;;5022599;28;20028;-59
2021/08/08 00:12:32;;;;;;;2.35;0.98;;;18.20;91.80;;;;;;5021107;28;20416;-59
2021/08/08 00:14:57;;;;;;;1.98;1.10;;;18.20;91.50;;;;;;5021710;28;20026;-59
2021/08/08 00:17:23;;;;;;;3.60;1.13;;;18.20;91.60;;;;;;5021140;28;20614;-59
2021/08/08 00:19:48;;;;;;;1.77;1.10;;;18.20;91.60;;;;;;5023861;28;20055;-59
2021/08/08 00:22:14;;;;;;;1.38;0.98;;;18.20;91.60;;;;;;5022999;28;20056;-59
2021/08/08 00:24:39;;;;;;;1.02;0.77;;;18.20;91.90;;;;;;5020895;28;20140;-59
2021/08/08 00:27:05;;;;;;;2.25;0.85;;;18.10;91.60;;;;;;5022465;28;20217;-59
2021/08/08 00:29:30;;;;;;;3.28;1.20;;;18.20;91.70;;;;;;5015986;28;20173;-59
2021/08/08 00:31:56;;;;;;;1.90;1.20;;;18.10;91.70;;;;;;5021448;28;20041;-59
2021/08/08 00:34:21;;;;;;;1.45;0.98;;;18.10;91.70;;;;;;5020662;28;20056;-59
2021/08/08 00:36:47;;;;;;;2.33;0.90;;;18.10;91.70;;;;;;5021142;28;20037;-59
2021/08/08 00:39:15;;;;;;;1.20;1.00;;;18.10;91.70;;;;;;5021829;28;20025;-59
2021/08/08 00:41:40;;;;;;;1.25;0.90;;;18.10;91.80;;;;;;5019474;28;20382;-59
2021/08/08 00:44:06;;;;;;;3.80;1.25;;;18.10;91.80;;;;;;5022192;28;20040;-62
2021/08/08 00:46:31;;;;;;;3.28;1.20;;;18.10;91.90;;;;;;5020081;28;20032;-59
2021/08/08 00:48:58;;;;;;;3.60;1.08;;;18.10;91.90;;;;;;5036326;28;20025;-59
2021/08/08 00:51:23;;;;;;;0.90;0.88;;;18.00;91.90;;;;;;5020658;28;20655;-59
2021/08/08 00:53:49;;;;;;;1.67;1.30;;;18.00;91.90;;;;;;5000835;28;20026;-59
2021/08/08 00:56:17;;;;;;;1.83;1.00;;;18.00;92.00;;;;;;5021556;28;20009;-60
2021/08/08 00:58:43;;;;;;;1.05;0.95;;;18.00;92.00;;;;;;5020990;28;20022;-59
2021/08/08 01:01:08;;;;;;;4.18;1.20;;;18.00;92.00;;;;;;5022112;28;20019;-59
2021/08/08 01:03:34;;;;;;;2.72;1.30;;;18.00;92.00;;;;;;4987488;28;20026;-59
2021/08/08 01:06:05;;;;;;;2.80;1.30;;;18.00;92.00;;;;;;5018499;28;20104;-59
2021/08/08 01:08:30;;;;;;;1.63;0.90;;;18.00;92.00;;;;;;5004523;28;20025;-59
2021/08/08 01:10:56;;;;;;;2.05;1.10;;;18.00;92.00;;;;;;5022942;28;20087;-59
2021/08/08 01:13:22;;;;;;;3.53;1.20;;;18.00;92.10;;;;;;5006697;28;20030;-58
2021/08/08 01:15:49;;;;;;;2.03;1.33;;;18.00;92.00;;;;;;5022371;28;20025;-59
2021/08/08 01:18:14;;;;;;;2.15;1.17;;;18.00;92.00;;;;;;5023372;28;20117;-59
2021/08/08 01:20:41;;;;;;;1.95;1.35;;;18.00;92.00;;;;;;5023923;28;20187;-58
2021/08/08 01:23:08;;;;;;;1.20;1.10;;;18.00;92.00;;;;;;5024429;28;20060;-59
2021/08/08 01:25:34;;;;;;;2.03;1.27;;;18.00;92.10;;;;;;5022613;28;20044;-59
2021/08/08 01:28:00;;;;;;;1.13;0.90;;;18.00;92.10;;;;;;5023889;28;20524;-59
2021/08/08 01:30:26;;;;;;;1.38;0.95;;;18.00;92.10;;;;;;5022650;28;20026;-60
2021/08/08 01:32:51;;;;;;;1.80;1.20;;;18.00;92.10;;;;;;5023500;28;20473;-59
2021/08/08 01:35:17;;;;;;;1.73;1.00;;;17.90;92.10;;;;;;5023045;28;20640;-59
2021/08/08 01:37:42;;;;;;;3.10;1.27;;;17.90;92.10;;;;;;5026903;28;20026;-59
2021/08/08 01:40:34;;;;;;;2.33;1.10;;;17.90;92.10;;;;;;5023052;28;20524;-59
2021/08/08 01:43:00;;;;;;;1.58;0.98;;;17.90;92.10;;;;;;5024030;28;20029;-59
2021/08/08 01:45:25;;;;;;;3.80;1.10;;;17.90;92.10;;;;;;5021774;28;20404;-59
2021/08/08 01:47:53;;;;;;;2.70;1.10;;;17.90;92.20;;;;;;5006313;28;20037;-59
2021/08/08 01:50:19;;;;;;;1.88;1.10;;;17.90;92.20;;;;;;5023698;28;20181;-59
2021/08/08 01:52:44;;;;;;;1.33;1.00;;;17.90;92.20;;;;;;5005953;28;20041;-60
2021/08/08 01:55:10;;;;;;;1.10;1.00;;;17.90;92.20;;;;;;5005611;28;20026;-59
2021/08/08 01:57:36;;;;;;;4.15;1.10;;;17.90;92.20;;;;;;5005074;28;20065;-59
2021/08/08 02:00:05;;;;;;;2.45;1.00;;;17.90;92.20;;;;;;5023056;28;20542;-59
2021/08/08 02:02:30;;;;;;;0.90;0.90;;;17.90;92.20;;;;;;5024534;28;20035;-59
2021/08/08 02:04:56;;;;;;;4.10;1.00;;;17.90;92.20;;;;;;4989721;28;20030;-59
2021/08/08 02:07:22;;;;;;;2.08;1.02;;;17.90;92.20;;;;;;5024677;28;21102;-59
2021/08/08 02:09:48;;;;;;;2.55;1.15;;;17.90;92.10;;;;;;5023991;28;20057;-59
2021/08/08 02:12:13;;;;;;;1.65;1.15;;;17.90;92.10;;;;;;5023388;28;20410;-59
2021/08/08 02:14:39;;;;;;;1.50;1.33;;;17.90;92.10;;;;;;5023337;28;20099;-59
2021/08/08 02:17:05;;;;;;;3.05;1.10;;;17.90;92.10;;;;;;5022869;28;20033;-59
2021/08/08 02:19:30;;;;;;;1.88;1.20;;;17.90;92.10;;;;;;5021950;28;20042;-59
2021/08/08 02:21:56;;;;;;;1.88;1.20;;;17.80;92.10;;;;;;5022555;28;20120;-59
2021/08/08 02:24:22;;;;;;;2.47;0.98;;;17.90;92.10;;;;;;5021813;28;20124;-63
2021/08/08 02:26:47;;;;;;;1.83;1.10;;;17.80;92.20;;;;;;5024270;28;20030;-59
2021/08/08 02:29:13;;;;;;;2.60;1.10;;;17.80;92.10;;;;;;5022346;28;20431;-60
2021/08/08 02:31:39;;;;;;;3.95;0.90;;;17.80;92.20;;;;;;5022141;28;20214;-59
2021/08/08 02:34:05;;;;;;;2.53;1.40;;;17.80;92.20;;;;;;5023433;28;20507;-59
2021/08/08 02:36:30;;;;;;;2.47;1.17;;;17.80;92.20;;;;;;5022058;28;20367;-59
2021/08/08 02:38:56;;;;;;;3.17;1.30;;;17.80;92.20;;;;;;5024886;28;20091;-59
2021/08/08 02:41:21;;;;;;;1.58;1.00;;;17.80;92.20;;;;;;5006556;28;20037;-59
2021/08/08 02:43:47;;;;;;;1.52;1.20;;;17.80;92.20;;;;;;5023077;28;20359;-59
2021/08/08 02:46:12;;;;;;;1.42;1.02;;;17.80;92.20;;;;;;5021516;28;20457;-59
2021/08/08 02:48:38;;;;;;;3.55;1.17;;;17.80;92.20;;;;;;5021481;28;20034;-59
2021/08/08 02:51:04;;;;;;;2.00;0.95;;;17.80;92.20;;;;;;5023213;28;20017;-59
2021/08/08 02:53:29;;;;;;;4.35;1.40;;;17.80;92.20;;;;;;5022497;28;20029;-59
2021/08/08 02:55:55;;;;;;;1.83;1.30;;;17.80;92.20;;;;;;5021778;28;20032;-59
2021/08/08 02:58:20;;;;;;;2.20;1.30;;;17.80;92.20;;;;;;5021981;28;20029;-59
2021/08/08 03:00:46;;;;;;;1.08;0.90;;;17.80;92.20;;;;;;5022819;28;20104;-59
2021/08/08 03:03:11;;;;;;;1.42;1.15;;;17.80;92.20;;;;;;5024167;28;20029;-59
2021/08/08 03:05:37;;;;;;;2.60;1.38;;;17.80;92.20;;;;;;5020236;28;20817;-59
2021/08/08 03:08:03;;;;;;;1.10;1.00;;;17.70;92.20;;;;;;5019445;28;20036;-59
2021/08/08 03:10:28;;;;;;;1.35;0.95;;;17.80;92.30;;;;;;5016739;28;20541;-59
2021/08/08 03:12:54;;;;;;;1.90;1.20;;;17.80;92.30;;;;;;5019798;28;20567;-59
2021/08/08 03:15:19;;;;;;;1.10;1.00;;;17.80;92.30;;;;;;5020731;28;20126;-59
2021/08/08 03:17:45;;;;;;;2.13;1.20;;;17.70;92.30;;;;;;5003376;28;20030;-59
2021/08/08 03:20:10;;;;;;;3.80;1.20;;;17.80;92.30;;;;;;5020354;28;20556;-59
2021/08/08 03:22:36;;;;;;;3.20;1.10;;;17.70;92.30;;;;;;5020236;28;20456;-59
2021/08/08 03:25:01;;;;;;;1.50;0.70;;;17.70;92.30;;;;;;5018677;28;20068;-60
2021/08/08 03:27:27;;;;;;;1.65;1.00;;;17.70;92.30;;;;;;5019273;28;20112;-59
2021/08/08 03:29:52;;;;;;;3.33;1.08;;;17.70;92.30;;;;;;5002233;28;20252;-60
2021/08/08 03:32:18;;;;;;;2.25;1.08;;;17.70;92.30;;;;;;5017308;28;20493;-59
2021/08/08 03:34:44;;;;;;;2.78;1.10;;;17.70;92.30;;;;;;5018370;28;20041;-59
2021/08/08 03:37:10;;;;;;;4.50;1.40;;;17.70;92.30;;;;;;5015438;28;20042;-59
2021/08/08 03:39:35;;;;;;;2.10;1.00;;;17.70;92.30;;;;;;5003123;28;20044;-59
2021/08/08 03:42:01;;;;;;;1.20;1.00;;;17.70;92.30;;;;;;5019586;28;20412;-60
2021/08/08 03:44:26;;;;;;;1.15;1.00;;;17.70;92.20;;;;;;5003327;28;20025;-59
2021/08/08 03:46:52;;;;;;;2.20;1.00;;;17.70;92.20;;;;;;5017521;28;20033;-59
2021/08/08 03:49:18;;;;;;;1.10;0.90;;;17.70;92.20;;;;;;5019813;28;20509;-59
2021/08/08 03:51:44;;;;;;;1.48;1.00;;;17.70;92.20;;;;;;5020819;28;20018;-59
2021/08/08 03:54:09;;;;;;;1.88;1.30;;;17.80;92.20;;;;;;5019474;28;20042;-60
2021/08/08 03:56:35;;;;;;;4.00;1.20;;;17.70;92.20;;;;;;5020297;28;20502;-59
2021/08/08 03:59:00;;;;;;;1.55;1.10;;;17.70;92.20;;;;;;5020029;28;20453;-59
2021/08/08 04:01:26;;;;;;;1.08;0.98;;;17.70;92.20;;;;;;5019590;28;20033;-59
2021/08/08 04:03:51;;;;;;;2.47;1.20;;;17.70;92.20;;;;;;5019173;28;20037;-59
2021/08/08 04:06:17;;;;;;;3.53;1.27;;;17.70;92.20;;;;;;5019182;28;20473;-60
2021/08/08 04:08:42;;;;;;;1.77;1.20;;;17.70;92.20;;;;;;5019297;28;20358;-59
2021/08/08 04:11:12;;;;;;;1.65;1.13;;;17.70;92.30;;;;;;5019865;28;20309;-59
2021/08/08 04:13:37;;;;;;;1.40;1.10;;;17.70;92.30;;;;;;5019491;28;20040;-60
2021/08/08 04:16:03;;;;;;;3.88;1.20;;;17.70;92.30;;;;;;5016726;28;20457;-59
2021/08/08 04:18:29;;;;;;;2.20;1.17;;;17.70;92.30;;;;;;5019283;28;20030;-59
2021/08/08 04:20:54;;;;;;;2.33;1.10;;;17.70;92.20;;;;;;5022439;28;20512;-59
2021/08/08 04:23:20;;;;;;;2.05;1.20;;;17.70;92.20;;;;;;5022823;28;20068;-59
2021/08/08 04:25:45;;;;;;;4.10;1.23;;;17.70;92.20;;;;;;5021449;28;20030;-59
2021/08/08 04:28:11;;;;;;;3.63;0.98;;;17.70;92.20;;;;;;5022640;28;20119;-59
2021/08/08 04:30:36;;;;;;;2.63;1.25;;;17.70;92.10;;;;;;5021361;28;20555;-59
2021/08/08 04:33:02;;;;;;;2.25;1.27;;;17.70;92.20;;;;;;5020754;28;20032;-59
2021/08/08 04:35:29;;;;;;;1.40;1.00;;;17.80;92.20;;;;;;5020951;28;20040;-59
2021/08/08 04:37:54;;;;;;;2.35;1.40;;;17.70;92.20;;;;;;5019866;28;20120;-59
2021/08/08 04:40:20;;;;;;;3.08;1.63;;;17.80;92.20;;;;;;5020226;28;20152;-59
2021/08/08 04:42:45;;;;;;;2.50;1.30;;;17.70;92.20;;;;;;5024215;28;20029;-59
2021/08/08 04:45:11;;;;;;;1.70;1.30;;;17.70;92.20;;;;;;5025235;28;20017;-59
2021/08/08 04:47:37;;;;;;;1.08;0.98;;;17.70;92.20;;;;;;5026802;28;20025;-59
2021/08/08 04:50:03;;;;;;;2.20;1.40;;;17.70;92.20;;;;;;5022491;28;20100;-59
2021/08/08 04:52:38;;;;;;;3.75;1.40;;;17.70;92.20;;;;;;5024408;28;20032;-59
2021/08/08 04:55:04;;;;;;;1.83;1.20;;;17.70;92.20;;;;;;5008679;28;20135;-59
2021/08/08 04:57:30;;;;;;;1.42;1.23;;;17.70;92.20;;;;;;5024944;28;20047;-59
2021/08/08 04:59:55;;;;;;;2.83;1.20;;;17.70;92.20;;;;;;5023306;28;20038;-59
2021/08/08 05:02:21;;;;;;;2.70;1.30;;;17.70;92.20;;;;;;5024521;28;20029;-60
2021/08/08 05:04:46;;;;;;;1.92;1.40;;;17.70;92.30;;;;;;5021937;28;20120;-60
2021/08/08 05:07:12;;;;;;;6.40;1.27;;;17.70;92.30;;;;;;5021908;28;20033;-59
2021/08/08 05:09:37;;;;;;;2.22;1.20;;;17.70;92.30;;;;;;5023191;28;20033;-59
2021/08/08 05:12:03;;;;;;;1.80;1.17;;;17.70;92.30;;;;;;5023999;28;20772;-59
2021/08/08 05:14:29;;;;;;;3.85;1.10;;;17.70;92.30;;;;;;5024091;28;20033;-59
2021/08/08 05:16:55;;;;;;;9.90;1.42;;;17.70;92.30;;;;;;5022696;28;20477;-59
2021/08/08 05:19:20;;;;;;;13.73;1.60;;;17.70;92.40;;;;;;5023473;28;20049;-59
2021/08/08 05:21:46;;;;;;;7.13;1.45;;;17.70;92.40;;;;;;5023839;28;20128;-59
2021/08/08 05:24:12;;;;;;;11.82;1.50;;;17.70;92.40;;;;;;5023525;28;20040;-59
2021/08/08 05:26:37;;;;;;;6.55;1.58;;;17.70;92.40;;;;;;5024233;28;20065;-60
2021/08/08 05:29:03;;;;;;;7.80;1.60;;;17.80;92.40;;;;;;5019047;28;20130;-60
2021/08/08 05:31:28;;;;;;;6.03;1.23;;;17.80;92.40;;;;;;5024456;28;20057;-59
2021/08/08 05:33:54;;;;;;;4.93;1.17;;;17.80;92.40;;;;;;5024093;28;20461;-60
2021/08/08 05:36:19;;;;;;;8.05;1.10;;;17.80;92.40;;;;;;5022682;28;20034;-59
2021/08/08 05:38:45;;;;;;;5.15;1.58;;;17.80;92.40;;;;;;5025768;28;20045;-59
2021/08/08 05:41:12;;;;;;;6.40;1.45;;;17.80;92.50;;;;;;5023974;28;20523;-60
2021/08/08 05:43:38;;;;;;;10.15;1.75;;;17.80;92.60;;;;;;5023844;28;20489;-60
2021/08/08 05:46:03;;;;;;;5.75;1.30;;;17.80;92.50;;;;;;5020212;28;20547;-59
2021/08/08 05:48:29;;;;;;;4.97;1.50;;;17.80;92.50;;;;;;5006999;28;20033;-59
2021/08/08 05:50:54;;;;;;;4.25;1.60;;;17.80;92.40;;;;;;5023124;28;20049;-60
2021/08/08 05:53:20;;;;;;;3.25;1.20;;;17.80;92.40;;;;;;5022516;28;20033;-59
2021/08/08 05:55:48;;;;;;;3.33;1.35;;;17.90;92.30;;;;;;5023198;28;20072;-59
2021/08/08 05:58:14;;;;;;;3.00;1.08;;;17.90;92.40;;;;;;5024550;28;20353;-59
2021/08/08 06:00:43;;;;;;;6.88;1.50;;;17.90;92.50;;;;;;5022475;28;20041;-59
2021/08/08 06:03:09;;;;;;;3.70;1.45;;;17.90;92.40;;;;;;5025883;28;20025;-60
2021/08/08 06:05:35;;;;;;;5.03;1.35;;;17.90;92.60;;;;;;5005667;28;20688;-60
2021/08/08 06:08:00;;;;;;;5.47;1.67;;;17.90;92.60;;;;;;5024343;28;20052;-59
2021/08/08 06:10:26;;;;;;;2.65;1.48;;;17.90;92.60;;;;;;5023167;28;20056;-59
2021/08/08 06:12:52;;;;;;;5.45;1.38;;;18.00;92.60;;;;;;5022069;28;20405;-59
2021/08/08 06:15:17;;;;;;;3.33;1.45;;;17.90;92.50;;;;;;5022673;28;20079;-60
2021/08/08 06:17:43;;;;;;;3.05;1.25;;;18.00;92.50;;;;;;5021751;28;20508;-59
2021/08/08 06:20:09;;;;;;;6.53;1.70;;;18.00;92.50;;;;;;5022174;28;20551;-59
2021/08/08 06:22:34;;;;;;;3.60;1.30;;;18.00;92.50;;;;;;5006694;28;20060;-60
2021/08/08 06:25:00;;;;;;;6.65;1.40;;;18.00;92.50;;;;;;5022629;28;20037;-59
2021/08/08 06:27:25;;;;;;;5.47;1.33;;;18.00;92.40;;;;;;5022467;28;20077;-59
2021/08/08 06:29:51;;;;;;;5.05;1.08;;;18.00;92.40;;;;;;5022648;28;20037;-59
2021/08/08 06:32:16;;;;;;;3.63;1.38;;;18.10;92.40;;;;;;5021330;28;20129;-60
2021/08/08 06:34:45;;;;;;;3.53;1.20;;;18.10;92.40;;;;;;5024913;28;20412;-59
2021/08/08 06:37:10;;;;;;;3.00;1.30;;;18.10;92.40;;;;;;5020761;28;20040;-60
2021/08/08 06:39:36;;;;;;;12.10;1.98;;;18.10;92.40;;;;;;5022560;28;20033;-59
2021/08/08 06:42:01;;;;;;;4.85;1.45;;;18.10;92.70;;;;;;5024150;28;20124;-59
2021/08/08 06:44:28;;;;;;;4.90;1.50;;;18.20;92.70;;;;;;5020937;28;20128;-59
2021/08/08 06:46:54;;;;;;;3.25;1.20;;;18.20;92.60;;;;;;5022078;28;20045;-60
2021/08/08 06:49:19;;;;;;;4.30;1.10;;;18.20;92.50;;;;;;5023385;28;20091;-59
2021/08/08 06:51:45;;;;;;;4.60;1.42;;;18.30;92.50;;;;;;5020214;28;20424;-59
2021/08/08 06:54:12;;;;;;;2.88;1.45;;;18.20;92.40;;;;;;5022055;28;20061;-59
2021/08/08 06:56:38;;;;;;;2.45;1.80;;;18.30;92.40;;;;;;5023266;28;20022;-59
2021/08/08 06:59:03;;;;;;;2.83;1.50;;;18.30;92.40;;;;;;5019884;28;20386;-59
2021/08/08 07:01:29;;;;;;;2.70;1.20;;;18.30;92.30;;;;;;5021896;28;20045;-59
2021/08/08 07:03:54;;;;;;;1.63;1.17;;;18.30;92.20;;;;;;5019063;28;20056;-59
2021/08/08 07:06:20;;;;;;;5.13;1.55;;;18.40;92.30;;;;;;5020783;28;20130;-59
2021/08/08 07:08:45;;;;;;;4.03;1.30;;;18.30;92.30;;;;;;5021155;28;20615;-59
2021/08/08 07:11:11;;;;;;;8.43;1.45;;;18.30;92.30;;;;;;5021544;28;20071;-59
2021/08/08 07:13:40;;;;;;;4.75;1.80;;;18.40;92.40;;;;;;5020903;28;20161;-60
2021/08/08 07:16:08;;;;;;;2.83;1.20;;;18.40;92.40;;;;;;5021594;28;20044;-59
2021/08/08 07:18:34;;;;;;;6.22;1.48;;;18.60;92.40;;;;;;5019952;28;20338;-59
2021/08/08 07:20:59;;;;;;;2.38;1.38;;;18.30;92.30;;;;;;5019740;28;20367;-59
2021/08/08 07:23:25;;;;;;;2.60;1.40;;;18.30;92.30;;;;;;5020412;28;20232;-60
2021/08/08 07:25:50;;;;;;;2.58;1.40;;;18.40;92.40;;;;;;5023366;28;20078;-59
2021/08/08 07:28:16;;;;;;;3.28;1.20;;;18.40;92.30;;;;;;5022903;28;20049;-60
2021/08/08 07:30:41;;;;;;;4.15;1.63;;;18.30;92.10;;;;;;5022018;28;20326;-59
2021/08/08 07:33:07;;;;;;;5.38;1.40;;;18.40;92.10;;;;;;4989942;28;20366;-60
2021/08/08 07:35:35;;;;;;;2.20;1.02;;;18.40;92.10;;;;;;4996387;28;20055;-60
2021/08/08 07:38:01;;;;;;;5.18;1.50;;;18.40;92.10;;;;;;5019231;28;20545;-59
2021/08/08 07:40:27;;;;;;;3.33;1.23;;;18.40;92.00;;;;;;5023419;28;20083;-59
2021/08/08 07:42:52;;;;;;;3.85;1.25;;;18.40;91.90;;;;;;5005382;28;20025;-59
2021/08/08 07:45:18;;;;;;;1.98;1.20;;;18.40;91.90;;;;;;5020870;28;20123;-60
2021/08/08 07:47:43;;;;;;;3.25;1.30;;;18.40;91.80;;;;;;5021646;28;20041;-59
2021/08/08 07:50:09;;;;;;;2.50;1.20;;;18.40;91.70;;;;;;5021584;28;20032;-59
2021/08/08 07:52:36;;;;;;;4.03;1.15;;;18.40;91.50;;;;;;5020603;28;20098;-60
2021/08/08 07:55:02;;;;;;;1.92;1.00;;;18.40;91.40;;;;;;5019745;28;20048;-59
2021/08/08 07:57:28;;;;;;;3.55;1.30;;;18.40;91.10;;;;;;5021090;28;20036;-59
2021/08/08 07:59:53;;;;;;;1.25;0.80;;;18.40;91.00;;;;;;5020353;28;20037;-59
2021/08/08 08:02:19;;;;;;;2.47;1.20;;;18.40;90.80;;;;;;5022274;28;20056;-60
2021/08/08 08:04:45;;;;;;;2.97;1.23;;;18.40;90.80;;;;;;5021521;28;20721;-60
2021/08/08 08:07:10;;;;;;;11.05;1.52;;;18.40;90.60;;;;;;5022489;28;20337;-59
2021/08/08 08:09:36;;;;;;;6.95;1.35;;;18.40;90.50;;;;;;5019739;28;20040;-60
2021/08/08 08:12:01;;;;;;;6.90;1.38;;;18.40;90.50;;;;;;5018796;28;20037;-60
2021/08/08 08:14:27;;;;;;;2.38;1.20;;;18.40;90.50;;;;;;5018631;28;20042;-59
2021/08/08 08:16:52;;;;;;;8.75;1.63;;;18.40;90.50;;;;;;5018290;28;20025;-59
2021/08/08 08:19:18;;;;;;;6.25;2.20;;;18.40;90.40;;;;;;5023608;28;20032;-59
2021/08/08 08:21:44;;;;;;;15.88;1.75;;;18.40;90.40;;;;;;5026367;28;20043;-59
2021/08/08 08:24:10;;;;;;;14.68;1.88;;;18.40;90.40;;;;;;5024374;28;20029;-59
2021/08/08 08:26:36;;;;;;;12.98;2.22;;;18.40;90.40;;;;;;5022559;28;20053;-59
2021/08/08 08:29:02;;;;;;;8.13;1.88;;;18.40;90.30;;;;;;5023845;28;20071;-59
2021/08/08 08:31:27;;;;;;;11.02;1.88;;;18.50;90.30;;;;;;5022115;28;20042;-59
2021/08/08 08:33:53;;;;;;;14.75;2.42;;;18.50;90.30;;;;;;5023919;28;20049;-59
2021/08/08 08:36:18;;;;;;;6.97;2.10;;;18.50;90.40;;;;;;5020727;28;20030;-59
2021/08/08 08:38:44;;;;;;;27.63;4.43;;;18.60;90.40;;;;;;5024166;28;20036;-59
2021/08/08 08:41:12;;;;;;;18.58;2.67;;;18.60;90.20;;;;;;5024150;28;20041;-59
2021/08/08 08:43:37;;;;;;;15.63;3.25;;;18.60;90.20;;;;;;5024046;28;20104;-59
2021/08/08 08:46:03;;;;;;;18.30;2.80;;;18.60;90.10;;;;;;4989989;28;20108;-59
2021/08/08 08:48:29;;;;;;;27.77;3.80;;;18.60;90.10;;;;;;5025222;28;20138;-59
2021/08/08 08:50:54;;;;;;;19.52;3.70;;;18.60;90.10;;;;;;5023035;28;20021;-59
2021/08/08 08:53:23;;;;;;;21.75;3.67;;;18.60;90.00;;;;;;5023412;28;20038;-59
2021/08/08 08:55:50;;;;;;;32.08;3.45;;;18.60;89.60;;;;;;5025028;28;20037;-59
2021/08/08 08:58:16;;;;;;;29.73;3.78;;;18.60;89.80;;;;;;5023345;28;20119;-59
2021/08/08 09:00:42;;;;;;;22.35;3.20;;;18.70;89.90;;;;;;5021366;28;20026;-59
2021/08/08 09:03:08;;;;;;;36.47;4.20;;;18.70;89.80;;;;;;5025230;28;20360;-59
2021/08/08 09:05:33;;;;;;;42.20;4.35;;;18.70;89.70;;;;;;5021231;28;20037;-60
2021/08/08 09:07:59;;;;;;;58.70;4.93;;;18.70;89.70;;;;;;5020496;28;20057;-59
2021/08/08 09:10:24;;;;;;;43.20;6.57;;;18.80;89.80;;;;;;5023241;28;20130;-59
2021/08/08 09:13:03;;;;;;;72.82;8.43;;;18.80;89.90;;;;;;5023734;28;20040;-59
2021/08/08 09:15:33;;;;;;;75.82;7.30;;;18.80;89.90;;;;;;5024168;28;20155;-59
2021/08/08 09:18:20;;;;;;;66.88;7.78;;;18.80;89.80;;;;;;5022492;28;20025;-60
2021/08/08 09:20:46;;;;;;;52.85;6.53;;;18.90;89.80;;;;;;5005035;28;20545;-58
2021/08/08 09:23:12;;;;;;;68.00;8.23;;;18.90;89.80;;;;;;5023473;28;20064;-62
2021/08/08 09:25:52;;;;;;;77.25;8.20;;;18.90;89.80;;;;;;5037940;28;20116;-60
2021/08/08 09:28:17;;;;;;;76.10;8.55;;;19.00;89.80;;;;;;4988510;28;20029;-60
2021/08/08 09:30:43;;;;;;;90.88;8.77;;;19.00;89.90;;;;;;5005029;28;20076;-60
2021/08/08 09:33:10;;;;;;;71.57;7.70;;;19.00;89.60;;;;;;5005277;28;20026;-61
2021/08/08 09:35:40;;;;;;;95.60;9.88;;;19.00;89.40;;;;;;5021991;28;20064;-60
2021/08/08 09:38:08;;;;;;;97.28;9.80;;;19.00;89.00;;;;;;5021602;28;20021;-60
2021/08/08 09:40:36;;;;;;;115.30;9.02;;;19.10;88.70;;;;;;5005657;28;20034;-60
2021/08/08 09:43:03;;;;;;;92.68;9.65;;;19.10;88.60;;;;;;5005636;28;20560;-60
2021/08/08 09:45:38;;;;;;;68.32;8.30;;;19.10;88.10;;;;;;5022956;28;20082;-60
2021/08/08 09:48:04;;;;;;;99.15;11.02;;;19.20;88.10;;;;;;5021446;28;20446;-60
2021/08/08 09:50:32;;;;;;;119.88;11.63;;;19.20;88.00;;;;;;5023678;28;20030;-60
2021/08/08 09:53:04;;;;;;;100.50;9.10;;;19.20;87.50;;;;;;5023137;28;20472;-61
2021/08/08 09:55:38;;;;;;;77.28;9.02;;;19.20;87.50;;;;;;5021993;28;20117;-60
2021/08/08 09:58:05;;;;;;;87.00;7.40;;;19.30;87.20;;;;;;5003548;28;20503;-60
2021/08/08 10:00:36;;;;;;;88.53;9.60;;;19.20;86.90;;;;;;5003798;28;20488;-60
2021/08/08 10:03:02;;;;;;;87.82;8.55;;;19.30;86.60;;;;;;5021478;28;20037;-60
2021/08/08 10:05:29;;;;;;;95.40;9.73;;;19.30;86.40;;;;;;5020231;28;20090;-61
2021/08/08 10:07:55;;;;;;;100.15;9.68;;;19.30;86.40;;;;;;5021476;28;20052;-60
2021/08/08 10:10:20;;;;;;;99.25;9.93;;;19.40;86.50;;;;;;5022595;28;20449;-60
2021/08/08 10:13:19;;;;;;;118.53;10.32;;;19.50;86.30;;;;;;5019525;28;20025;-60
2021/08/08 10:15:46;;;;;;;93.75;8.77;;;19.60;86.40;;;;;;5020604;28;20232;-60
2021/08/08 10:18:14;;;;;;;89.35;9.10;;;19.70;86.10;;;;;;5023075;28;20060;-60
2021/08/08 10:20:39;;;;;;;97.60;8.52;;;19.70;85.60;;;;;;5024700;28;20045;-60
2021/08/08 10:23:05;;;;;;;98.07;9.00;;;19.70;85.40;;;;;;5020361;28;20159;-60
2021/08/08 10:25:31;;;;;;;92.10;8.73;;;19.80;85.50;;;;;;5002643;28;20041;-60
2021/08/08 10:27:57;;;;;;;87.22;9.32;;;19.80;84.90;;;;;;5004308;28;20056;-60
2021/08/08 10:30:22;;;;;;;99.55;10.35;;;19.80;84.70;;;;;;5038051;28;20393;-61
2021/08/08 10:32:48;;;;;;;105.00;11.95;;;19.90;84.40;;;;;;5018064;28;20037;-60
2021/08/08 10:35:16;;;;;;;102.45;11.00;;;20.00;84.20;;;;;;5020449;28;20101;-60
2021/08/08 10:37:42;;;;;;;68.30;8.98;;;20.00;84.50;;;;;;5018752;28;20505;-61
2021/08/08 10:40:08;;;;;;;111.30;11.30;;;20.00;84.30;;;;;;5019519;28;20081;-61
2021/08/08 10:42:44;;;;;;;100.60;10.27;;;20.10;84.70;;;;;;5001839;28;20043;-60
2021/08/08 10:45:31;;;;;;;151.77;15.60;;;20.10;83.70;;;;;;5020563;28;20060;-60
2021/08/08 10:48:01;;;;;;;77.85;8.35;;;20.20;83.50;;;;;;5020330;28;20033;-61
2021/08/08 10:50:47;;;;;;;100.65;9.32;;;20.20;82.50;;;;;;5020018;28;20105;-60
2021/08/08 10:53:22;;;;;;;85.53;8.10;;;20.20;82.20;;;;;;5017491;28;20770;-61
2021/08/08 10:56:09;;;;;;;85.57;7.68;;;20.20;81.90;;;;;;5002616;28;20059;-60
2021/08/08 10:58:36;;;;;;;68.18;7.72;;;20.30;81.90;;;;;;5019596;28;20380;-60
2021/08/08 11:01:02;;;;;;;105.40;10.98;;;20.40;82.30;;;;;;5016776;28;20445;-61
2021/08/08 11:03:27;;;;;;;87.68;10.52;;;20.40;82.80;;;;;;4992507;28;20025;-60
2021/08/08 11:05:53;;;;;;;87.13;7.95;;;20.40;83.10;;;;;;4997712;28;20032;-61
2021/08/08 11:08:22;;;;;;;79.20;9.07;;;20.50;83.30;;;;;;5012886;28;20033;-60
2021/08/08 11:10:47;;;;;;;157.80;13.38;;;20.50;83.60;;;;;;5015555;28;20524;-60
2021/08/08 11:13:16;;;;;;;80.72;8.48;;;20.50;84.00;;;;;;5020419;28;20064;-61
2021/08/08 11:15:43;;;;;;;120.57;11.52;;;20.60;84.10;;;;;;5017428;28;20135;-61
2021/08/08 11:18:09;;;;;;;127.97;10.77;;;20.60;84.40;;;;;;5013611;28;20037;-61
2021/08/08 11:20:35;;;;;;;129.73;12.23;;;20.70;84.50;;;;;;5019177;28;20073;-60
2021/08/08 11:23:03;;;;;;;109.57;12.68;;;20.70;84.60;;;;;;5020137;28;20045;-60
2021/08/08 11:25:42;;;;;;;106.18;12.05;;;20.70;85.00;;;;;;5019715;28;20141;-59
2021/08/08 11:28:09;;;;;;;100.95;9.77;;;20.70;85.10;;;;;;5019440;28;20365;-59
2021/08/08 11:30:43;;;;;;;74.20;7.93;;;20.70;85.20;;;;;;5016729;28;20077;-60
2021/08/08 11:33:08;;;;;;;80.47;8.15;;;20.70;86.10;;;;;;5019046;28;20021;-60
2021/08/08 11:35:34;;;;;;;59.97;7.13;;;20.70;85.90;;;;;;5003215;28;20025;-59
2021/08/08 11:37:59;;;;;;;54.47;5.88;;;20.70;86.40;;;;;;5018887;28;20459;-60
2021/08/08 11:40:27;;;;;;;65.97;7.10;;;20.70;86.40;;;;;;5016969;28;20036;-60
2021/08/08 11:43:03;;;;;;;61.15;6.53;;;20.70;86.30;;;;;;5015443;28;20029;-60
2021/08/08 11:45:37;;;;;;;67.50;8.30;;;20.80;86.50;;;;;;5015746;28;20049;-60
2021/08/08 11:48:03;;;;;;;40.08;4.45;;;20.80;86.70;;;;;;5019059;28;20132;-62
2021/08/08 11:50:29;;;;;;;56.88;7.32;;;20.80;86.60;;;;;;5018388;28;20044;-62
2021/08/08 11:52:58;;;;;;;77.63;8.18;;;20.80;87.20;;;;;;5019375;28;20052;-62
2021/08/08 11:55:24;;;;;;;134.65;9.63;;;20.80;87.00;;;;;;5013162;28;20575;-59
2021/08/08 11:57:49;;;;;;;91.35;8.40;;;20.80;87.10;;;;;;5016933;28;20072;-59
2021/08/08 12:00:15;;;;;;;62.20;6.43;;;20.80;87.20;;;;;;5017011;28;20033;-60
2021/08/08 12:02:40;;;;;;;71.03;7.93;;;20.80;87.40;;;;;;5018641;28;20188;-59
2021/08/08 12:05:06;;;;;;;44.38;6.45;;;20.80;87.10;;;;;;5018270;28;20666;-59
2021/08/08 12:07:32;;;;;;;41.63;4.78;;;20.80;86.30;;;;;;5016868;28;20732;-59
2021/08/08 12:09:59;;;;;;;46.38;4.47;;;20.80;86.40;;;;;;5015538;28;20042;-60
2021/08/08 12:12:37;;;;;;;64.90;5.85;;;20.80;86.70;;;;;;5019355;28;20614;-59
2021/08/08 12:15:04;;;;;;;49.22;5.07;;;20.80;87.10;;;;;;5016124;28;20030;-59
2021/08/08 12:17:29;;;;;;;85.07;9.45;;;20.80;87.20;;;;;;5000125;28;20053;-60
2021/08/08 12:19:57;;;;;;;114.18;9.40;;;20.70;86.90;;;;;;5016381;28;20636;-59
2021/08/08 12:22:28;;;;;;;83.22;8.50;;;20.80;86.70;;;;;;4998865;28;20053;-59
2021/08/08 12:25:06;;;;;;;75.47;7.10;;;20.80;86.70;;;;;;5017057;28;20514;-59
2021/08/08 12:27:33;;;;;;;70.85;7.35;;;20.90;86.80;;;;;;5014358;28;20045;-60
2021/08/08 12:29:58;;;;;;;59.05;5.40;;;20.80;86.70;;;;;;5012960;28;20057;-60
2021/08/08 12:32:24;;;;;;;67.85;6.53;;;20.90;86.30;;;;;;5017988;28;20033;-59
2021/08/08 12:34:50;;;;;;;73.18;7.38;;;20.90;86.10;;;;;;5011346;28;20120;-59
2021/08/08 12:37:20;;;;;;;91.32;11.32;;;20.90;86.30;;;;;;5032786;28;20045;-59
2021/08/08 12:39:45;;;;;;;73.60;9.30;;;20.90;86.30;;;;;;4993726;28;20026;-59